Time;durP1;ratioP1;P1;durP2;ratioP2;P2;SDS_P1;SDS_P2;PMS_P1;PMS_P2;Temp;Humidity;BMP_temperature;BMP_pressure;BME280_temperature;BME280_humidity;BME280_pressure;Samples;Min_cycle;Max_cycle;Signal;HPM_P1;HPM_P2
2021/08/09 00:00:44;;;;;;;0.50;0.50;;;;;;;13.76;68.52;99036.81;5013598;28;40449;-86
2021/08/09 00:03:12;;;;;;;0.30;0.30;;;;;;;13.80;68.53;99048.94;5013608;28;42763;-86
2021/08/09 00:05:41;;;;;;;0.30;0.30;;;;;;;13.78;68.53;99060.66;5029911;28;42590;-87
2021/08/09 00:08:08;;;;;;;0.30;0.30;;;;;;;13.75;68.42;99063.53;5029079;28;39051;-85
2021/08/09 00:10:37;;;;;;;0.53;0.53;;;;;;;13.81;68.57;99071.09;5013467;28;42243;-85
2021/08/09 00:13:05;;;;;;;0.43;0.43;;;;;;;13.77;68.47;99069.59;5012290;28;41703;-86
2021/08/09 00:15:34;;;;;;;0.20;0.20;;;;;;;13.74;68.36;99081.31;5030144;28;42712;-86
2021/08/09 00:18:01;;;;;;;1.20;0.40;;;;;;;13.62;68.91;99060.91;5012387;28;40150;-86
2021/08/09 00:20:29;;;;;;;0.30;0.30;;;;;;;13.61;68.92;99059.19;5013420;28;42075;-85
2021/08/09 00:22:57;;;;;;;0.30;0.30;;;;;;;13.65;69.32;99066.00;5013144;28;43160;-86
2021/08/09 00:25:24;;;;;;;0.50;0.50;;;;;;;13.67;69.22;99069.41;5013583;28;41348;-85
2021/08/09 00:27:53;;;;;;;0.33;0.33;;;;;;;13.55;68.73;99059.66;5013911;28;39123;-85
2021/08/09 00:30:21;;;;;;;0.40;0.40;;;;;;;13.67;68.73;99085.38;5013348;28;41139;-86
2021/08/09 00:32:49;;;;;;;0.30;0.30;;;;;;;13.53;68.79;99059.75;5013483;28;41819;-86
2021/08/09 00:35:16;;;;;;;0.30;0.30;;;;;;;13.57;68.96;99063.06;5028256;28;41571;-86
2021/08/09 00:37:44;;;;;;;0.50;0.50;;;;;;;13.45;68.83;99043.50;5013121;28;39834;-85
2021/08/09 00:40:13;;;;;;;0.57;0.57;;;;;;;13.56;68.65;99061.34;5029778;28;41402;-86
2021/08/09 00:42:40;;;;;;;0.20;0.20;;;;;;;13.45;68.85;99043.50;5012363;28;41712;-86
2021/08/09 00:45:12;;;;;;;0.40;0.40;;;;;;;13.62;68.71;99077.72;5012438;28;42322;-85
2021/08/09 00:47:40;;;;;;;0.60;0.43;;;;;;;13.53;68.83;99062.41;5012420;28;41178;-86
2021/08/09 00:50:11;;;;;;;0.30;0.30;;;;;;;13.54;68.39;99065.94;5045958;28;41952;-86
2021/08/09 00:52:40;;;;;;;0.30;0.30;;;;;;;13.56;68.53;99061.34;5012156;28;42478;-85
2021/08/09 00:55:09;;;;;;;0.20;0.20;;;;;;;13.57;69.07;99060.41;5012877;28;41619;-84
2021/08/09 00:57:36;;;;;;;0.37;0.37;;;;;;;13.68;69.21;99080.91;5012635;28;39330;-86
2021/08/09 01:00:06;;;;;;;1.23;0.73;;;;;;;13.59;69.26;99072.66;5012948;28;40608;-85
2021/08/09 01:02:41;;;;;;;0.40;0.40;;;;;;;13.60;69.60;99069.00;5028140;28;43395;-86
2021/08/09 01:05:10;;;;;;;0.30;0.30;;;;;;;13.62;69.27;99068.88;5012854;28;42309;-86
2021/08/09 01:07:46;;;;;;;1.17;0.70;;;;;;;13.68;69.15;99075.59;5011820;28;38708;-85
2021/08/09 01:10:33;;;;;;;0.40;0.40;;;;;;;13.68;69.35;99076.44;5012616;28;42050;-85
2021/08/09 01:13:09;;;;;;;0.80;0.50;;;;;;;13.72;69.33;99079.75;5028017;28;43769;-85
2021/08/09 01:15:41;;;;;;;0.43;0.43;;;;;;;13.64;69.83;99070.47;5028882;28;41355;-86
2021/08/09 01:18:13;;;;;;;0.60;0.60;;;;;;;13.60;70.05;99058.34;5011964;28;38810;-85
2021/08/09 01:20:48;;;;;;;0.43;0.43;;;;;;;13.70;70.02;99079.84;5028761;28;41326;-85
2021/08/09 01:23:28;;;;;;;0.40;0.40;;;;;;;13.62;70.13;99071.53;5012165;28;41872;-85
2021/08/09 01:25:59;;;;;;;0.40;0.40;;;;;;;13.71;69.73;99080.72;5012452;28;42384;-86
2021/08/09 01:28:33;;;;;;;0.30;0.30;;;;;;;13.69;70.00;99083.47;5011796;28;39394;-85
2021/08/09 01:31:02;;;;;;;0.20;0.20;;;;;;;13.66;69.75;99086.34;5029174;28;41605;-86
2021/08/09 01:33:36;;;;;;;0.30;0.30;;;;;;;13.70;69.66;99092.31;5011844;28;41735;-86
2021/08/09 01:36:05;;;;;;;0.47;0.47;;;;;;;13.58;69.57;99076.25;5028115;28;42076;-85
2021/08/09 01:38:36;;;;;;;0.77;0.77;;;;;;;13.57;69.96;99073.72;5012221;28;39763;-85
2021/08/09 01:41:06;;;;;;;0.60;0.60;;;;;;;13.61;70.00;99081.34;5027999;28;41344;-85
2021/08/09 01:43:38;;;;;;;0.30;0.30;;;;;;;13.57;70.04;99079.03;5011543;28;41896;-85
2021/08/09 01:46:07;;;;;;;0.43;0.43;;;;;;;13.62;70.48;99083.03;5011142;28;41613;-85
2021/08/09 01:48:35;;;;;;;0.40;0.40;;;;;;;13.58;70.35;99080.72;5011280;28;39436;-85
2021/08/09 01:51:05;;;;;;;0.40;0.40;;;;;;;13.50;70.39;99061.78;5028343;28;41925;-86
2021/08/09 01:53:33;;;;;;;0.30;0.30;;;;;;;13.56;70.54;99077.31;5011448;28;42721;-86
2021/08/09 01:56:01;;;;;;;0.50;0.50;;;;;;;13.46;70.19;99065.63;5011860;28;41152;-85
2021/08/09 01:58:31;;;;;;;0.83;0.70;;;;;;;13.41;70.56;99075.75;5027919;28;39031;-86
2021/08/09 02:01:00;;;;;;;0.37;0.37;;;;;;;13.39;70.61;99069.66;5011964;28;40912;-85
2021/08/09 02:03:28;;;;;;;0.30;0.30;;;;;;;13.33;70.54;99072.78;5028366;28;41697;-85
2021/08/09 02:05:56;;;;;;;0.63;0.40;;;;;;;13.41;70.66;99094.38;5011636;28;41271;-86
2021/08/09 02:08:25;;;;;;;0.60;0.60;;;;;;;13.28;70.32;99073.94;5028403;28;39198;-86
2021/08/09 02:10:58;;;;;;;0.50;0.50;;;;;;;13.31;70.88;99086.19;5011194;28;40759;-86
2021/08/09 02:13:28;;;;;;;0.40;0.40;;;;;;;13.24;71.86;99075.09;5027850;28;41676;-86
2021/08/09 02:16:02;;;;;;;0.50;0.50;;;;;;;13.25;71.74;99074.16;5044865;28;43062;-85
2021/08/09 02:18:40;;;;;;;0.33;0.33;;;;;;;13.34;71.69;99095.75;5011545;28;39000;-85
2021/08/09 02:21:13;;;;;;;0.53;0.53;;;;;;;13.34;71.47;99090.44;5011736;28;40886;-86
2021/08/09 02:23:46;;;;;;;0.40;0.40;;;;;;;13.42;71.29;99101.38;5027419;28;43443;-85
2021/08/09 02:26:19;;;;;;;0.40;0.40;;;;;;;13.39;71.33;99085.63;5010980;28;41644;-85
2021/08/09 02:28:51;;;;;;;0.33;0.33;;;;;;;13.42;71.63;99088.09;5028049;28;40261;-86
2021/08/09 02:31:23;;;;;;;0.20;0.20;;;;;;;13.28;71.35;99063.31;5011655;28;40889;-85
2021/08/09 02:33:52;;;;;;;0.70;0.70;;;;;;;13.55;71.20;99110.22;5032007;28;42841;-87
2021/08/09 02:36:20;;;;;;;0.60;0.50;;;;;;;13.57;71.06;99105.63;5014475;28;41260;-85
2021/08/09 02:38:48;;;;;;;0.80;0.57;;;;;;;13.57;71.61;99102.97;5015096;28;39205;-85
2021/08/09 02:41:18;;;;;;;0.60;0.43;;;;;;;13.50;71.17;99088.38;5014924;28;41070;-85
2021/08/09 02:43:46;;;;;;;0.40;0.40;;;;;;;13.39;71.30;99091.81;5014001;28;41798;-84
2021/08/09 02:46:14;;;;;;;0.50;0.50;;;;;;;13.36;71.30;99092.00;5031349;28;41063;-85
2021/08/09 02:48:43;;;;;;;0.50;0.50;;;;;;;13.28;71.40;99094.38;5014072;28;41503;-84
2021/08/09 02:51:12;;;;;;;0.73;0.57;;;;;;;13.23;71.36;99092.03;5014730;28;41998;-84
2021/08/09 02:53:41;;;;;;;1.03;0.97;;;;;;;13.20;71.43;99097.56;5013623;28;42434;-85
2021/08/09 02:56:11;;;;;;;0.30;0.30;;;;;;;13.26;71.43;99112.22;5014085;28;41789;-85
2021/08/09 02:58:39;;;;;;;0.47;0.37;;;;;;;13.13;71.19;99096.25;5014122;28;39078;-85
2021/08/09 03:01:09;;;;;;;0.30;0.30;;;;;;;13.10;71.21;99096.47;5031468;28;40819;-85
2021/08/09 03:03:39;;;;;;;0.20;0.20;;;;;;;13.09;71.13;99104.56;5014554;28;43137;-85
2021/08/09 03:06:11;;;;;;;0.30;0.30;;;;;;;13.13;71.26;99122.84;5031033;28;42146;-85
2021/08/09 03:08:39;;;;;;;0.80;0.40;;;;;;;13.09;71.03;99110.72;5030929;28;40740;-86
2021/08/09 03:11:08;;;;;;;0.30;0.30;;;;;;;13.11;70.92;99115.91;5030600;28;41772;-84
2021/08/09 03:13:38;;;;;;;0.33;0.33;;;;;;;12.99;71.38;99096.34;5014461;28;41928;-84
2021/08/09 03:16:07;;;;;;;0.30;0.30;;;;;;;13.07;71.12;99112.63;5014037;28;42502;-84
2021/08/09 03:18:34;;;;;;;0.23;0.23;;;;;;;12.95;71.34;99102.84;5014702;28;39915;-86
2021/08/09 03:21:02;;;;;;;0.40;0.40;;;;;;;12.92;71.02;99109.22;5014117;28;40667;-85
2021/08/09 03:23:31;;;;;;;0.50;0.50;;;;;;;12.90;71.34;99104.94;5014923;28;42267;-85
2021/08/09 03:25:59;;;;;;;0.57;0.30;;;;;;;12.88;71.43;99114.81;5013988;28;41545;-86
2021/08/09 03:28:26;;;;;;;0.30;0.30;;;;;;;12.88;71.23;99114.81;5014830;28;38936;-86
2021/08/09 03:30:54;;;;;;;0.53;0.43;;;;;;;12.75;71.51;99100.66;5030413;28;41170;-85
2021/08/09 03:33:23;;;;;;;0.50;0.50;;;;;;;12.82;71.52;99118.78;5013985;28;42625;-85
2021/08/09 03:35:50;;;;;;;0.33;0.33;;;;;;;12.79;71.47;99118.13;5014352;28;41275;-85
2021/08/09 03:38:18;;;;;;;0.70;0.70;;;;;;;12.78;71.59;99127.03;5030667;28;40572;-85
2021/08/09 03:40:47;;;;;;;0.30;0.30;;;;;;;12.77;71.78;99117.38;5013532;28;41793;-86
2021/08/09 03:43:15;;;;;;;0.30;0.30;;;;;;;12.64;72.10;99097.88;5012448;28;41971;-86
2021/08/09 03:45:43;;;;;;;0.40;0.40;;;;;;;12.76;72.12;99124.47;5014541;28;41414;-85
2021/08/09 03:48:12;;;;;;;0.53;0.47;;;;;;;12.72;71.97;99116.84;5012637;28;40007;-86
2021/08/09 03:50:40;;;;;;;0.40;0.40;;;;;;;12.73;71.92;99118.53;5013452;28;40899;-86
2021/08/09 03:53:07;;;;;;;0.37;0.37;;;;;;;12.78;71.78;99127.03;5013907;28;41694;-86
2021/08/09 03:55:35;;;;;;;0.23;0.23;;;;;;;12.74;71.80;99125.53;5046532;28;42437;-86
2021/08/09 03:58:05;;;;;;;2.33;0.33;;;;;;;12.70;71.67;99122.25;5013325;28;40016;-85
2021/08/09 04:00:33;;;;;;;0.40;0.40;;;;;;;12.70;71.73;99129.38;5014368;28;41091;-85
2021/08/09 04:03:02;;;;;;;0.30;0.30;;;;;;;12.76;71.97;99132.44;5013641;28;42461;-85
2021/08/09 04:05:35;;;;;;;0.30;0.30;;;;;;;12.69;72.21;99127.66;5013196;28;41196;-85
2021/08/09 04:08:04;;;;;;;0.40;0.40;;;;;;;12.78;71.92;99143.84;5013086;28;41171;-85
2021/08/09 04:10:32;;;;;;;0.40;0.40;;;;;;;12.68;71.87;99125.97;5014340;28;40879;-85
2021/08/09 04:13:00;;;;;;;0.30;0.30;;;;;;;12.78;72.08;99132.34;5012777;28;41716;-86
2021/08/09 04:15:30;;;;;;;0.33;0.33;;;;;;;12.71;72.15;99123.97;5013674;28;41728;-86
2021/08/09 04:17:59;;;;;;;0.20;0.20;;;;;;;12.71;72.48;99126.63;5013157;28;39796;-84
2021/08/09 04:20:26;;;;;;;0.83;0.50;;;;;;;12.79;72.24;99129.59;5014014;28;41953;-85
2021/08/09 04:22:54;;;;;;;0.50;0.40;;;;;;;12.82;72.28;99139.19;5013307;28;42241;-84
2021/08/09 04:25:24;;;;;;;0.53;0.40;;;;;;;12.75;72.50;99122.78;5013987;28;42992;-86
2021/08/09 04:27:52;;;;;;;0.43;0.30;;;;;;;12.85;72.71;99131.84;5013387;28;39021;-86
2021/08/09 04:30:21;;;;;;;0.40;0.40;;;;;;;12.80;72.54;99114.50;5012215;28;41728;-86
2021/08/09 04:32:51;;;;;;;0.50;0.50;;;;;;;12.86;72.51;99114.06;5033156;28;42887;-85
2021/08/09 04:35:20;;;;;;;1.07;0.50;;;;;;;12.94;72.51;99117.94;5018747;28;41356;-85
2021/08/09 04:37:52;;;;;;;0.40;0.40;;;;;;;13.05;72.66;99130.50;5020348;28;39330;-85
2021/08/09 04:40:20;;;;;;;0.60;0.60;;;;;;;12.87;72.93;99100.69;5036302;28;40656;-85
2021/08/09 04:42:48;;;;;;;0.30;0.30;;;;;;;13.10;73.17;99132.84;5023913;28;41919;-85
2021/08/09 04:45:19;;;;;;;1.27;0.73;;;;;;;13.03;73.14;99115.59;5020244;28;41279;-84
2021/08/09 04:47:47;;;;;;;0.40;0.40;;;;;;;13.05;73.08;99111.88;5038645;28;41428;-85
2021/08/09 04:50:17;;;;;;;0.50;0.47;;;;;;;13.16;73.08;99119.16;5031982;28;42000;-85
2021/08/09 04:52:45;;;;;;;0.53;0.53;;;;;;;13.22;72.54;99132.03;5014107;28;42803;-85
2021/08/09 04:55:18;;;;;;;0.43;0.40;;;;;;;13.21;72.50;99115.22;5014401;28;41211;-85
2021/08/09 04:57:47;;;;;;;0.50;0.50;;;;;;;13.34;72.19;99119.72;5048731;28;42015;-86
2021/08/09 05:00:15;;;;;;;0.50;0.50;;;;;;;13.35;71.94;99113.44;5031953;28;42226;-85
2021/08/09 05:02:43;;;;;;;0.30;0.30;;;;;;;13.43;71.84;99119.06;5030290;28;41949;-87
2021/08/09 05:05:15;;;;;;;0.30;0.30;;;;;;;13.49;71.63;99100.84;5029781;28;42546;-85
2021/08/09 05:07:44;;;;;;;0.33;0.33;;;;;;;13.68;71.70;99103.06;5013325;28;40348;-86
2021/08/09 05:10:14;;;;;;;0.63;0.40;;;;;;;13.85;71.40;99123.97;5013052;28;41493;-86
2021/08/09 05:12:42;;;;;;;0.57;0.57;;;;;;;13.87;71.55;99103.44;5029186;28;43621;-85
2021/08/09 05:15:14;;;;;;;0.80;0.60;;;;;;;14.07;71.32;99120.66;5012517;28;41383;-85
2021/08/09 05:17:42;;;;;;;0.60;0.53;;;;;;;14.18;71.28;99122.53;5012871;28;40383;-85
2021/08/09 05:20:11;;;;;;;0.37;0.37;;;;;;;14.20;71.27;99093.97;5011873;28;40810;-86
2021/08/09 05:22:38;;;;;;;0.47;0.47;;;;;;;14.34;71.34;99096.47;5028554;28;42947;-85
2021/08/09 05:25:10;;;;;;;0.70;0.70;;;;;;;14.48;71.05;99109.63;5011413;28;41328;-85
2021/08/09 05:27:38;;;;;;;0.43;0.43;;;;;;;14.58;70.88;99108.00;5029546;28;38780;-85
2021/08/09 05:30:08;;;;;;;0.37;0.37;;;;;;;14.60;71.15;99102.53;5028407;28;42657;-85
2021/08/09 05:32:36;;;;;;;0.50;0.50;;;;;;;14.72;71.11;99107.78;5027835;28;42869;-85
2021/08/09 05:35:05;;;;;;;0.50;0.50;;;;;;;14.91;70.85;99122.41;5028769;28;42390;-86
2021/08/09 05:37:34;;;;;;;0.43;0.43;;;;;;;14.92;70.97;99113.44;5012350;28;39958;-84
2021/08/09 05:40:05;;;;;;;0.50;0.50;;;;;;;15.06;70.97;99126.59;5028095;28;41548;-86
2021/08/09 05:42:35;;;;;;;0.67;0.67;;;;;;;15.09;70.83;99116.50;5011622;28;42116;-86
2021/08/09 05:45:05;;;;;;;0.43;0.43;;;;;;;15.21;70.74;99125.38;5028308;28;42813;-85
2021/08/09 05:47:32;;;;;;;0.30;0.30;;;;;;;15.29;70.40;99139.00;5012342;28;41121;-86
2021/08/09 05:50:00;;;;;;;0.53;0.40;;;;;;;15.31;70.55;99115.72;5028562;28;42071;-86
2021/08/09 05:52:32;;;;;;;0.43;0.43;;;;;;;15.43;70.22;99111.25;5012169;28;42829;-85
2021/08/09 05:55:09;;;;;;;0.40;0.40;;;;;;;15.58;70.00;99118.06;5011896;28;42597;-86
2021/08/09 05:57:39;;;;;;;0.50;0.50;;;;;;;15.74;69.77;99112.34;5012006;28;39109;-87
2021/08/09 06:00:09;;;;;;;0.43;0.43;;;;;;;15.94;69.79;99118.81;5011412;28;40880;-86
2021/08/09 06:02:43;;;;;;;0.50;0.50;;;;;;;16.05;69.96;99118.78;5028361;28;41897;-85
2021/08/09 06:05:20;;;;;;;0.40;0.40;;;;;;;16.13;69.92;99114.50;5029117;28;42297;-85
2021/08/09 06:07:52;;;;;;;0.50;0.50;;;;;;;16.26;69.83;99102.81;5012425;28;39001;-87
2021/08/09 06:10:21;;;;;;;0.47;0.47;;;;;;;16.43;69.49;99129.03;5028077;28;40925;-85
2021/08/09 06:12:51;;;;;;;0.77;0.63;;;;;;;16.50;69.35;99122.19;5012067;28;41772;-86
2021/08/09 06:15:19;;;;;;;0.50;0.50;;;;;;;16.65;69.13;99123.63;5011135;28;42590;-86
2021/08/09 06:17:47;;;;;;;0.50;0.40;;;;;;;16.92;68.97;99133.00;5011962;28;39332;-86
2021/08/09 06:20:18;;;;;;;0.63;0.63;;;;;;;17.10;68.11;99132.28;5011922;28;41056;-85
2021/08/09 06:22:46;;;;;;;0.73;0.57;;;;;;;17.28;67.88;99129.88;5011684;28;42211;-86
2021/08/09 06:25:14;;;;;;;0.87;0.73;;;;;;;17.52;66.52;99138.47;5027720;28;41243;-85
2021/08/09 06:27:42;;;;;;;0.50;0.50;;;;;;;17.73;66.41;99134.94;5012301;28;39634;-83
2021/08/09 06:30:13;;;;;;;0.70;0.70;;;;;;;17.95;65.79;99140.09;5027642;28;41995;-85
2021/08/09 06:32:41;;;;;;;0.40;0.40;;;;;;;18.03;65.30;99121.53;5028182;28;41973;-87
2021/08/09 06:35:10;;;;;;;0.63;0.63;;;;;;;18.38;64.92;99114.81;5010856;28;41486;-86
2021/08/09 06:37:41;;;;;;;0.53;0.53;;;;;;;18.96;64.12;99121.94;5011346;28;40416;-86
2021/08/09 06:40:10;;;;;;;0.70;0.70;;;;;;;19.85;61.95;99129.69;5027572;28;42017;-86
2021/08/09 06:42:39;;;;;;;0.40;0.40;;;;;;;20.94;58.97;99150.25;5027745;28;41753;-86
2021/08/09 06:45:14;;;;;;;0.40;0.40;;;;;;;21.44;57.91;99148.69;5028371;28;41457;-87
2021/08/09 06:47:42;;;;;;;0.40;0.40;;;;;;;21.60;56.68;99164.13;5028574;28;41045;-85
2021/08/09 06:50:10;;;;;;;0.63;0.63;;;;;;;21.37;57.21;99160.28;5027311;28;40752;-87
2021/08/09 06:52:37;;;;;;;0.40;0.40;;;;;;;21.04;57.31;99148.31;5011673;28;42101;-86
2021/08/09 06:55:07;;;;;;;0.50;0.50;;;;;;;21.10;57.09;99162.03;5027487;28;42435;-87
2021/08/09 06:57:37;;;;;;;0.50;0.50;;;;;;;20.99;56.20;99158.75;5027790;28;40184;-88
2021/08/09 07:00:07;;;;;;;0.43;0.43;;;;;;;20.91;57.26;99146.03;5026976;28;40866;-86
2021/08/09 07:02:37;;;;;;;0.33;0.33;;;;;;;21.01;56.98;99141.44;5011375;28;41804;-85
2021/08/09 07:05:05;;;;;;;0.50;0.50;;;;;;;21.32;57.31;99144.56;5010760;28;42741;-87
2021/08/09 07:07:33;;;;;;;0.93;0.50;;;;;;;21.54;55.51;99148.59;5011584;28;39129;-86
2021/08/09 07:10:06;;;;;;;0.60;0.60;;;;;;;21.63;55.44;99142.25;5026939;28;41587;-86
2021/08/09 07:12:36;;;;;;;0.50;0.50;;;;;;;21.67;56.05;99143.63;5010653;28;41958;-86
2021/08/09 07:15:06;;;;;;;0.63;0.63;;;;;;;21.78;55.42;99151.44;5026543;28;41230;-85
2021/08/09 07:17:40;;;;;;;0.30;0.30;;;;;;;21.81;54.60;99145.72;5011050;28;39343;-85
2021/08/09 07:20:13;;;;;;;1.00;0.50;;;;;;;21.78;55.08;99146.03;5014200;28;40642;-85
2021/08/09 07:22:43;;;;;;;0.30;0.30;;;;;;;21.82;54.31;99152.81;5015051;28;43032;-86
2021/08/09 07:25:13;;;;;;;2.10;0.40;;;;;;;21.96;54.54;99161.31;5030154;28;42591;-85
2021/08/09 07:27:41;;;;;;;0.43;0.43;;;;;;;22.11;54.06;99151.66;5013761;28;40883;-88
2021/08/09 07:30:12;;;;;;;0.60;0.60;;;;;;;22.73;52.49;99173.78;5029632;28;42379;-86
2021/08/09 07:32:41;;;;;;;0.40;0.40;;;;;;;22.86;52.50;99174.19;5029589;28;42951;-88
2021/08/09 07:35:11;;;;;;;0.40;0.40;;;;;;;22.88;51.89;99172.97;5014108;28;42617;-87
2021/08/09 07:37:39;;;;;;;0.47;0.40;;;;;;;23.77;50.71;99180.28;5030423;28;38731;-85
2021/08/09 07:40:08;;;;;;;0.40;0.40;;;;;;;24.39;48.40;99191.28;5031109;28;41983;-88
2021/08/09 07:42:36;;;;;;;1.80;0.50;;;;;;;24.34;48.38;99161.19;5029522;28;41997;-86
2021/08/09 07:45:04;;;;;;;0.30;0.30;;;;;;;24.40;48.02;99203.81;5013665;28;41715;-86
2021/08/09 07:47:32;;;;;;;0.43;0.43;;;;;;;24.21;49.05;99183.38;5013929;28;40086;-87
2021/08/09 07:50:05;;;;;;;0.30;0.30;;;;;;;24.21;49.39;99198.78;5013510;28;41630;-88
2021/08/09 07:52:33;;;;;;;0.30;0.30;;;;;;;24.31;49.10;99177.78;5014119;28;41796;-88
2021/08/09 07:55:01;;;;;;;0.70;0.70;;;;;;;24.56;47.53;99182.06;5013755;28;41220;-88
2021/08/09 07:57:29;;;;;;;0.40;0.37;;;;;;;24.87;47.76;99171.22;5013851;28;39501;-87
2021/08/09 07:59:57;;;;;;;0.37;0.37;;;;;;;25.46;47.10;99193.19;5013326;28;40926;-88
2021/08/09 08:02:25;;;;;;;0.40;0.40;;;;;;;25.91;46.53;99200.41;5014077;28;42954;-85
2021/08/09 08:04:53;;;;;;;0.30;0.30;;;;;;;26.12;45.59;99192.38;5030220;28;42665;-87
2021/08/09 08:07:22;;;;;;;0.30;0.30;;;;;;;26.89;45.10;99204.66;5030244;28;40079;-87
2021/08/09 08:09:50;;;;;;;0.63;0.63;;;;;;;27.15;44.93;99210.44;5014046;28;42133;-88
2021/08/09 08:12:18;;;;;;;0.40;0.40;;;;;;;27.02;42.43;99226.59;5030557;28;41334;-90
2021/08/09 08:14:47;;;;;;;0.60;0.60;;;;;;;26.90;44.56;99196.31;5013990;28;42732;-87
2021/08/09 08:17:20;;;;;;;1.10;0.40;;;;;;;26.75;42.48;99212.66;5029362;28;41276;-86
2021/08/09 08:19:48;;;;;;;1.20;0.43;;;;;;;26.64;43.93;99196.84;5029718;28;42062;-87
2021/08/09 08:22:16;;;;;;;0.30;0.30;;;;;;;27.02;42.37;99213.00;5012431;28;42982;-88
2021/08/09 08:24:46;;;;;;;0.50;0.50;;;;;;;27.30;41.82;99218.53;5013351;28;43162;-85
2021/08/09 08:27:14;;;;;;;0.30;0.30;;;;;;;27.52;40.98;99212.88;5028874;28;39330;-88
2021/08/09 08:29:44;;;;;;;0.30;0.30;;;;;;;27.64;39.12;99209.66;5011930;28;41073;-90
2021/08/09 08:32:12;;;;;;;0.30;0.30;;;;;;;27.68;37.41;99221.84;5013643;28;41843;-91
2021/08/09 08:34:40;;;;;;;0.30;0.30;;;;;;;27.82;37.29;99229.06;5012994;28;42282;-87
2021/08/09 08:37:08;;;;;;;0.50;0.30;;;;;;;28.40;37.22;99227.00;5012422;28;39048;-89
2021/08/09 08:39:35;;;;;;;0.40;0.40;;;;;;;29.24;35.87;99235.75;5012199;28;42118;-88
2021/08/09 08:42:05;;;;;;;0.87;0.50;;;;;;;29.91;35.05;99242.97;5029806;28;41762;-86
2021/08/09 08:44:33;;;;;;;0.40;0.40;;;;;;;30.83;33.13;99253.75;5012849;28;42012;-88
2021/08/09 08:47:01;;;;;;;0.80;0.40;;;;;;;31.19;30.96;99275.09;5029234;28;38866;-88
2021/08/09 08:49:29;;;;;;;0.40;0.40;;;;;;;31.24;31.87;99260.75;5012871;28;42022;-88
2021/08/09 08:51:58;;;;;;;0.40;0.40;;;;;;;31.41;32.54;99261.91;5029019;28;41822;-91
2021/08/09 08:54:27;;;;;;;0.60;0.60;;;;;;;31.90;31.42;99276.78;5028818;28;42149;-87
2021/08/09 08:56:54;;;;;;;0.60;0.60;;;;;;;31.74;31.19;99257.09;5011918;28;39457;-86
2021/08/09 08:59:23;;;;;;;0.40;0.40;;;;;;;31.84;31.61;99277.66;5013047;28;40587;-90
2021/08/09 09:01:52;;;;;;;0.40;0.40;;;;;;;31.47;31.82;99265.66;5045845;28;43024;-90
2021/08/09 09:04:20;;;;;;;0.57;0.57;;;;;;;31.50;32.05;99268.81;5012672;28;41265;-92
2021/08/09 09:06:54;;;;;;;0.43;0.43;;;;;;;31.53;30.98;99276.56;5013011;28;40905;-88
2021/08/09 09:09:22;;;;;;;0.50;0.50;;;;;;;31.76;30.84;99265.91;5028802;28;40740;-88
2021/08/09 09:11:50;;;;;;;0.50;0.50;;;;;;;31.87;31.02;99255.28;5029424;28;43065;-90
2021/08/09 09:14:29;;;;;;;0.50;0.50;;;;;;;32.11;31.90;99258.03;5029036;28;41990;-88
2021/08/09 09:16:58;;;;;;;0.40;0.40;;;;;;;32.50;30.46;99271.59;5012507;28;39792;-89
2021/08/09 09:19:37;;;;;;;1.30;0.50;;;;;;;33.06;27.98;99283.19;5028822;28;41801;-89
2021/08/09 09:22:08;;;;;;;0.40;0.40;;;;;;;33.22;28.94;99283.63;5011966;28;41794;-90
2021/08/09 09:24:36;;;;;;;0.60;0.60;;;;;;;33.08;28.64;99271.97;5012340;28;42884;-89
2021/08/09 09:27:08;;;;;;;0.63;0.63;;;;;;;33.36;28.30;99294.25;5027713;28;39377;-88
2021/08/09 09:29:39;;;;;;;0.70;0.50;;;;;;;34.54;27.00;99302.50;5027489;28;42075;-87
2021/08/09 09:32:16;;;;;;;0.50;0.43;;;;;;;35.45;25.81;99300.06;5012575;28;43026;-88
2021/08/09 09:34:49;;;;;;;0.50;0.50;;;;;;;35.56;25.78;99300.00;5012490;28;41512;-88
2021/08/09 09:37:25;;;;;;;0.65;0.55;;;;;;;35.23;26.55;99289.72;5028523;28;39107;-90
2021/08/09 09:39:53;;;;;;;1.13;1.03;;;;;;;34.25;25.94;99285.00;5012223;28;40842;-87
2021/08/09 09:42:32;;;;;;;0.50;0.50;;;;;;;33.29;27.24;99281.66;5028600;28;41851;-87
2021/08/09 09:45:18;;;;;;;0.30;0.30;;;;;;;32.34;27.82;99278.50;5012209;28;42156;-89
2021/08/09 09:47:46;;;;;;;0.40;0.40;;;;;;;31.89;29.96;99269.63;5011336;28;38904;-88
2021/08/09 09:50:24;;;;;;;1.00;0.30;;;;;;;31.72;30.73;99264.69;5012887;28;40972;-88
2021/08/09 09:52:52;;;;;;;0.47;0.40;;;;;;;31.77;28.74;99267.56;5012179;28;41764;-91
2021/08/09 09:55:19;;;;;;;0.50;0.50;;;;;;;32.59;28.58;99265.59;5012839;28;41655;-87
2021/08/09 09:57:47;;;;;;;0.50;0.50;;;;;;;33.77;27.28;99281.59;5012422;28;40233;-86
2021/08/09 10:00:18;;;;;;;1.37;0.80;;;;;;;34.05;26.29;99291.94;5011792;28;40756;-86
2021/08/09 10:02:47;;;;;;;0.50;0.43;;;;;;;33.54;28.17;99282.34;5012661;28;41705;-87
2021/08/09 10:05:16;;;;;;;0.40;0.40;;;;;;;33.09;27.96;99276.41;5012270;28;41204;-87
2021/08/09 10:07:47;;;;;;;0.33;0.33;;;;;;;32.57;27.90;99283.31;5028996;28;39926;-87
2021/08/09 10:10:16;;;;;;;0.40;0.40;;;;;;;31.98;29.27;99258.16;5028632;28;41998;-89
2021/08/09 10:12:47;;;;;;;0.63;0.40;;;;;;;31.99;30.71;99258.97;5045117;28;43173;-88
2021/08/09 10:15:18;;;;;;;0.40;0.40;;;;;;;32.45;29.97;99242.94;5011760;28;41570;-88
2021/08/09 10:17:48;;;;;;;0.33;0.33;;;;;;;33.01;27.87;99269.31;5011809;28;39090;-86
2021/08/09 10:20:17;;;;;;;0.60;0.60;;;;;;;33.45;27.06;99276.34;5026808;28;41112;-87
2021/08/09 10:22:56;;;;;;;0.60;0.60;;;;;;;33.96;26.74;99287.88;5011740;28;42092;-87
2021/08/09 10:25:45;;;;;;;0.60;0.60;;;;;;;34.44;25.47;99307.78;5011990;28;41539;-86
2021/08/09 10:28:13;;;;;;;0.30;0.30;;;;;;;33.37;26.63;99295.06;5028156;28;39749;-89
2021/08/09 10:30:42;;;;;;;0.50;0.50;;;;;;;33.66;27.30;99280.47;5044154;28;41845;-92
2021/08/09 10:33:10;;;;;;;0.40;0.40;;;;;;;34.65;26.52;99275.22;5027186;28;43266;-86
2021/08/09 10:36:03;;;;;;;0.40;0.40;;;;;;;35.85;24.78;99298.09;5028709;28;41632;-87
2021/08/09 10:38:39;;;;;;;0.67;0.67;;;;;;;36.95;22.79;99285.47;5010706;28;39582;-86
2021/08/09 10:41:30;;;;;;;0.53;0.53;;;;;;;37.55;21.56;99317.69;5028386;28;40982;-86
2021/08/09 10:44:21;;;;;;;0.50;0.50;;;;;;;36.84;22.90;99291.94;5011287;28;41809;-87
2021/08/09 10:46:52;;;;;;;0.43;0.43;;;;;;;36.06;24.19;99284.63;5010984;28;42644;-88
2021/08/09 10:49:57;;;;;;;0.80;0.60;;;;;;;36.03;23.62;99294.25;5011031;28;39979;-88
2021/08/09 10:52:36;;;;;;;0.30;0.30;;;;;;;35.31;24.22;99266.47;5028066;28;40793;-88
2021/08/09 10:55:41;;;;;;;0.50;0.50;;;;;;;35.44;24.68;99273.59;5014964;28;41835;-88
2021/08/09 10:58:09;;;;;;;0.60;0.60;;;;;;;34.56;24.90;99266.50;5014394;28;41322;-90
2021/08/09 11:00:55;;;;;;;0.60;0.60;;;;;;;34.47;26.13;99246.78;5015318;28;39267;-88
2021/08/09 11:03:25;;;;;;;0.63;0.63;;;;;;;35.28;23.52;99270.53;5014893;28;40849;-90
2021/08/09 11:05:52;;;;;;;0.47;0.47;;;;;;;35.38;23.93;99269.06;5014480;28;41780;-86
2021/08/09 11:08:31;;;;;;;0.57;0.57;;;;;;;35.27;23.83;99279.88;5014779;28;41324;-89
2021/08/09 11:11:02;;;;;;;0.40;0.40;;;;;;;35.12;25.01;99249.25;5014704;28;39143;-87
2021/08/09 11:13:32;;;;;;;0.50;0.50;;;;;;;35.62;24.90;99254.06;5030323;28;42028;-89
2021/08/09 11:16:01;;;;;;;0.50;0.50;;;;;;;36.92;23.63;99263.88;5030944;28;42790;-87
2021/08/09 11:18:34;;;;;;;0.30;0.30;;;;;;;38.09;20.99;99285.31;5014623;28;41433;-87
2021/08/09 11:21:03;;;;;;;0.50;0.50;;;;;;;38.72;20.11;99292.69;5015347;28;40301;-87
2021/08/09 11:23:37;;;;;;;0.43;0.43;;;;;;;38.68;19.96;99299.91;5014416;28;40869;-88
2021/08/09 11:26:05;;;;;;;0.40;0.40;;;;;;;39.22;19.54;99287.69;5030946;28;42935;-86
2021/08/09 11:28:33;;;;;;;1.08;0.50;;;;;;;40.15;19.75;99286.50;5014499;28;41450;-90
2021/08/09 11:31:03;;;;;;;0.70;0.50;;;;;;;39.40;20.63;99268.63;5013637;28;39326;-89
2021/08/09 11:33:34;;;;;;;0.50;0.50;;;;;;;38.42;20.67;99264.81;5029822;28;40806;-89
2021/08/09 11:36:03;;;;;;;0.40;0.40;;;;;;;38.29;21.09;99277.19;5014474;28;42309;-87
2021/08/09 11:38:42;;;;;;;0.40;0.40;;;;;;;37.90;21.41;99270.22;5013851;28;42410;-86
2021/08/09 11:41:11;;;;;;;0.43;0.43;;;;;;;37.66;21.67;99255.91;5029817;28;40054;-88
2021/08/09 11:43:40;;;;;;;0.80;0.60;;;;;;;37.64;20.85;99269.16;5013344;28;41928;-86
2021/08/09 11:46:16;;;;;;;0.40;0.40;;;;;;;37.61;22.10;99255.81;5014410;28;42148;-89
2021/08/09 11:48:47;;;;;;;0.63;0.40;;;;;;;37.80;20.46;99270.97;5012781;28;42173;-87